createdAt,value
2023-03-29T00:01:00.212Z,3.67
2023-03-29T00:02:02.207Z,3.66
2023-03-29T00:03:04.425Z,3.65
2023-03-29T00:04:06.510Z,3.63
2023-03-29T00:05:09.906Z,3.62
2023-03-29T00:06:15.207Z,3.60
2023-03-29T00:07:16.631Z,3.58
2023-03-29T00:08:18.555Z,3.59
2023-03-29T00:09:20.109Z,3.58
2023-03-29T00:10:25.248Z,3.57
2023-03-29T00:11:27.605Z,3.56
2023-03-29T00:12:29.086Z,3.57
2023-03-29T00:13:32.724Z,3.55
2023-03-29T00:14:34.209Z,3.54
2023-03-29T00:15:41.028Z,3.54
2023-03-29T00:16:44.822Z,3.53
2023-03-29T00:17:46.357Z,3.52
2023-03-29T00:18:47.862Z,3.51
2023-03-29T00:19:49.303Z,3.50
2023-03-29T00:20:56.491Z,3.50
2023-03-29T00:21:57.879Z,3.48
2023-03-29T00:23:00.821Z,3.48
2023-03-29T00:24:02.310Z,3.49
2023-03-29T00:25:04.348Z,3.49
2023-03-29T00:26:08.152Z,3.50
2023-03-29T00:27:09.873Z,3.51
2023-03-29T00:28:13.813Z,3.51
2023-03-29T00:29:15.962Z,3.51
2023-03-29T00:30:17.457Z,3.52
2023-03-29T00:31:18.964Z,3.49
2023-03-29T00:32:20.551Z,3.50
2023-03-29T00:33:22.786Z,3.50
2023-03-29T00:34:26.243Z,3.49
2023-03-29T00:35:27.802Z,3.49
2023-03-29T00:36:29.215Z,3.49
2023-03-29T00:37:31.134Z,3.50
2023-03-29T00:38:34.897Z,3.48
2023-03-29T00:39:36.820Z,3.47
2023-03-29T00:40:42.601Z,3.46
2023-03-29T00:41:44.812Z,3.45
2023-03-29T00:42:46.848Z,3.45
2023-03-29T00:43:52.376Z,3.45
2023-03-29T00:44:59.460Z,3.46
2023-03-29T00:46:03.665Z,3.46
2023-03-29T00:47:05.152Z,3.46
2023-03-29T00:48:08.513Z,3.46
2023-03-29T00:49:13.514Z,3.46
2023-03-29T00:50:18.384Z,3.46
2023-03-29T00:51:21.638Z,3.45
2023-03-29T00:52:24.311Z,3.43
2023-03-29T00:53:39.351Z,3.44
2023-03-29T00:54:45.898Z,3.44
2023-03-29T00:55:47.552Z,3.44
2023-03-29T00:56:52.596Z,3.44
2023-03-29T00:57:58.604Z,3.43
2023-03-29T00:59:04.387Z,3.41
2023-03-29T01:00:10.007Z,3.40
2023-03-29T01:01:17.485Z,3.40
2023-03-29T01:02:25.920Z,3.39
2023-03-29T01:03:30.301Z,3.39
2023-03-29T01:04:36.920Z,3.39
2023-03-29T01:05:40.618Z,3.39
2023-03-29T01:06:44.661Z,3.39
2023-03-29T01:07:53.676Z,3.39
2023-03-29T01:08:58.449Z,3.39
2023-03-29T01:10:15.895Z,3.39
2023-03-29T01:11:18.800Z,3.39
2023-03-29T01:12:25.439Z,3.40
2023-03-29T01:13:46.177Z,3.39
2023-03-29T01:14:54.355Z,3.40
2023-03-29T01:15:57.459Z,3.41
2023-03-29T01:16:59.413Z,3.40
2023-03-29T01:18:04.181Z,3.39
2023-03-29T01:19:13.900Z,3.38
2023-03-29T01:20:22.188Z,3.37
2023-03-29T01:21:27.902Z,3.34
2023-03-29T01:22:45.347Z,3.34
2023-03-29T01:23:52.593Z,3.33
2023-03-29T01:25:13.167Z,3.31
2023-03-29T01:26:24.907Z,3.32
2023-03-29T01:27:38.864Z,3.33
2023-03-29T01:28:45.507Z,3.34
2023-03-29T01:29:50.185Z,3.33
2023-03-29T01:30:53.354Z,3.33
2023-03-29T01:31:58.028Z,3.32
2023-03-29T01:33:06.248Z,3.31
2023-03-29T01:34:11.648Z,3.31
2023-03-29T01:35:15.857Z,3.32
2023-03-29T01:36:23.924Z,3.31
2023-03-29T01:37:38.767Z,3.32
2023-03-29T01:38:41.477Z,3.33
2023-03-29T01:39:42.964Z,3.33
2023-03-29T01:40:45.886Z,3.33
2023-03-29T01:42:02.537Z,3.33
2023-03-29T01:43:22.896Z,3.33
2023-03-29T01:44:31.654Z,3.32
2023-03-29T01:45:50.448Z,3.33
2023-03-29T01:46:55.958Z,3.32
2023-03-29T01:47:57.858Z,3.32
2023-03-29T01:49:03.928Z,3.32
2023-03-29T01:50:15.555Z,3.31
2023-03-29T01:51:26.543Z,3.32
2023-03-29T01:52:32.221Z,3.31
2023-03-29T01:53:42.902Z,3.31
2023-03-29T01:54:51.980Z,3.31
2023-03-29T01:55:59.045Z,3.29
2023-03-29T01:57:01.085Z,3.28
2023-03-29T01:58:03.893Z,3.28
2023-03-29T01:59:15.957Z,3.27
2023-03-29T02:00:19.574Z,3.25
2023-03-29T02:01:28.917Z,3.23
2023-03-29T02:02:31.681Z,3.22
2023-03-29T02:03:42.674Z,3.21
2023-03-29T02:04:50.224Z,3.20
2023-03-29T02:05:53.801Z,3.19
2023-03-29T02:06:58.012Z,3.17
2023-03-29T02:08:05.029Z,3.16
2023-03-29T02:09:10.618Z,3.15
2023-03-29T02:10:13.254Z,3.15
2023-03-29T02:11:16.484Z,3.14
2023-03-29T02:12:18.563Z,3.14
2023-03-29T02:13:20.603Z,3.12
2023-03-29T02:14:25.048Z,3.12
2023-03-29T02:15:30.255Z,3.12
2023-03-29T02:16:38.905Z,3.11
2023-03-29T02:17:40.842Z,3.11
2023-03-29T02:18:44.590Z,3.11
2023-03-29T02:19:50.156Z,3.10
2023-03-29T02:20:56.208Z,3.08
2023-03-29T02:22:04.667Z,3.07
2023-03-29T02:23:06.217Z,3.07
2023-03-29T02:24:09.315Z,3.07
2023-03-29T02:25:14.437Z,3.07
2023-03-29T02:26:17.968Z,3.07
2023-03-29T02:27:23.056Z,3.07
2023-03-29T02:28:26.272Z,3.07
2023-03-29T02:29:30.996Z,3.07
2023-03-29T02:30:39.055Z,3.07
2023-03-29T02:31:55.258Z,3.07
2023-03-29T02:33:07.331Z,3.06
2023-03-29T02:34:21.229Z,3.06
2023-03-29T02:35:28.961Z,3.04
2023-03-29T02:36:50.783Z,3.05
2023-03-29T02:37:54.770Z,3.04
2023-03-29T02:38:58.646Z,3.04
2023-03-29T02:40:00.455Z,3.02
2023-03-29T02:41:03.064Z,3.02
2023-03-29T02:42:07.966Z,3.03
2023-03-29T02:43:13.668Z,3.01
2023-03-29T02:44:20.403Z,3.01
2023-03-29T02:45:28.067Z,2.99
2023-03-29T02:46:29.844Z,2.99
2023-03-29T02:47:34.898Z,2.98
2023-03-29T02:48:49.061Z,2.97
2023-03-29T02:49:50.854Z,2.98
2023-03-29T02:50:54.918Z,2.97
2023-03-29T02:51:59.196Z,2.96
2023-03-29T02:53:04.806Z,2.95
2023-03-29T02:54:29.781Z,2.96
2023-03-29T02:55:34.680Z,2.94
2023-03-29T02:56:46.410Z,2.93
2023-03-29T02:57:49.279Z,2.92
2023-03-29T02:58:50.744Z,2.91
2023-03-29T02:59:54.221Z,2.89
2023-03-29T03:00:56.444Z,2.88
2023-03-29T03:02:00.982Z,2.88
2023-03-29T03:03:04.541Z,2.87
2023-03-29T03:04:06.240Z,2.86
2023-03-29T03:05:10.837Z,2.84
2023-03-29T03:06:14.101Z,2.83
2023-03-29T03:07:15.484Z,2.82
2023-03-29T03:08:17.023Z,2.80
2023-03-29T03:09:19.218Z,2.79
2023-03-29T03:10:22.220Z,2.78
2023-03-29T03:11:24.093Z,2.77
2023-03-29T03:12:25.800Z,2.75
2023-03-29T03:13:29.710Z,2.74
2023-03-29T03:14:31.270Z,2.74
2023-03-29T03:15:35.885Z,2.73
2023-03-29T03:16:37.621Z,2.73
2023-03-29T03:17:40.039Z,2.71
2023-03-29T03:18:41.968Z,2.71
2023-03-29T03:19:43.933Z,2.69
2023-03-29T03:20:56.368Z,2.69
2023-03-29T03:21:58.290Z,2.68
2023-03-29T03:23:02.014Z,2.66
2023-03-29T03:24:11.174Z,2.65
2023-03-29T03:25:16.792Z,2.64
2023-03-29T03:26:18.920Z,2.63
2023-03-29T03:27:21.221Z,2.62
2023-03-29T03:28:24.477Z,2.61
2023-03-29T03:29:26.307Z,2.61
2023-03-29T03:31:00.021Z,2.61
2023-03-29T03:32:36.715Z,2.58
2023-03-29T03:34:01.322Z,2.56
2023-03-29T03:35:24.579Z,2.54
2023-03-29T03:36:29.146Z,2.53
2023-03-29T03:37:31.766Z,2.53
2023-03-29T03:38:36.242Z,2.52
2023-03-29T03:39:38.896Z,2.50
2023-03-29T03:40:43.433Z,2.50
2023-03-29T03:41:45.978Z,2.49
2023-03-29T03:42:47.605Z,2.49
2023-03-29T03:43:50.562Z,2.49
2023-03-29T03:44:52.087Z,2.47
2023-03-29T03:46:14.132Z,2.46
2023-03-29T03:47:16.152Z,2.44
2023-03-29T03:48:39.828Z,2.45
2023-03-29T03:50:02.879Z,2.42
2023-03-29T03:51:05.909Z,2.41
2023-03-29T03:52:10.232Z,2.39
2023-03-29T03:53:11.864Z,2.37
2023-03-29T03:54:43.838Z,2.37
2023-03-29T03:56:09.309Z,2.36
2023-03-29T03:57:25.178Z,2.35
2023-03-29T03:58:28.866Z,2.33
2023-03-29T03:59:30.872Z,2.33
2023-03-29T04:00:40.354Z,2.30
2023-03-29T04:02:06.918Z,2.31
2023-03-29T04:03:11.239Z,2.31
2023-03-29T04:04:13.363Z,2.30
2023-03-29T04:05:25.453Z,2.29
2023-03-29T04:06:30.509Z,2.28
2023-03-29T04:07:50.451Z,2.27
2023-03-29T04:10:56.744Z,2.21
2023-03-29T04:12:04.191Z,2.18
2023-03-29T04:13:05.852Z,2.16
2023-03-29T04:14:16.259Z,2.15
2023-03-29T04:15:41.255Z,2.15
2023-03-29T04:16:47.774Z,2.14
2023-03-29T04:18:12.665Z,2.14
2023-03-29T04:19:19.404Z,2.15
2023-03-29T04:20:27.157Z,2.15
2023-03-29T04:21:30.864Z,2.14
2023-03-29T04:22:32.912Z,2.15
2023-03-29T04:23:36.231Z,2.15
2023-03-29T04:24:37.792Z,2.14
2023-03-29T04:26:02.319Z,2.14
2023-03-29T04:27:25.053Z,2.15
2023-03-29T04:28:26.544Z,2.15
2023-03-29T04:29:41.548Z,2.15
2023-03-29T04:30:53.371Z,2.14
2023-03-29T04:32:06.128Z,2.16
2023-03-29T04:33:19.862Z,2.16
2023-03-29T04:34:28.778Z,2.18
2023-03-29T04:35:31.050Z,2.19
2023-03-29T04:36:32.957Z,2.19
2023-03-29T04:37:41.794Z,2.19
2023-03-29T04:38:47.745Z,2.19
2023-03-29T04:39:52.680Z,2.19
2023-03-29T04:40:55.192Z,2.19
2023-03-29T04:42:16.286Z,2.19
2023-03-29T04:43:20.599Z,2.18
2023-03-29T04:44:34.109Z,2.19
2023-03-29T04:45:39.097Z,2.19
2023-03-29T04:46:51.421Z,2.18
2023-03-29T04:47:54.076Z,2.20
2023-03-29T04:48:55.694Z,2.19
2023-03-29T04:50:10.009Z,2.20
2023-03-29T04:51:16.413Z,2.21
2023-03-29T04:52:24.293Z,2.20
2023-03-29T04:53:28.936Z,2.20
2023-03-29T04:54:30.819Z,2.21
2023-03-29T04:55:50.980Z,2.21
2023-03-29T04:57:11.143Z,2.23
2023-03-29T04:58:24.419Z,2.24
2023-03-29T04:59:28.853Z,2.24
2023-03-29T05:00:39.829Z,2.25
2023-03-29T05:01:56.592Z,2.26
2023-03-29T05:03:01.959Z,2.25
2023-03-29T05:04:07.275Z,2.27
2023-03-29T05:06:18.020Z,2.28
2023-03-29T05:07:19.836Z,2.29
2023-03-29T05:08:21.987Z,2.29
2023-03-29T05:09:49.649Z,2.31
2023-03-29T05:10:51.443Z,2.30
2023-03-29T05:11:53.677Z,2.32
2023-03-29T05:12:56.952Z,2.32
2023-03-29T05:14:03.584Z,2.33
2023-03-29T05:15:10.948Z,2.34
2023-03-29T05:16:12.778Z,2.34
2023-03-29T05:17:17.136Z,2.35
2023-03-29T05:18:19.953Z,2.36
2023-03-29T05:19:25.408Z,2.36
2023-03-29T05:20:27.375Z,2.37
2023-03-29T05:21:33.618Z,2.37
2023-03-29T05:22:40.346Z,2.38
2023-03-29T05:23:48.225Z,2.39
2023-03-29T05:24:57.519Z,2.39
2023-03-29T05:26:01.653Z,2.40
2023-03-29T05:27:04.046Z,2.41
2023-03-29T05:28:09.679Z,2.41
2023-03-29T05:29:15.941Z,2.41
2023-03-29T05:30:20.567Z,2.41
2023-03-29T05:31:32.744Z,2.40
2023-03-29T05:32:38.149Z,2.40
2023-03-29T05:33:41.177Z,2.41
2023-03-29T05:34:43.780Z,2.42
2023-03-29T05:35:46.359Z,2.43
2023-03-29T05:36:49.106Z,2.43
2023-03-29T05:37:51.304Z,2.45
2023-03-29T05:38:52.838Z,2.46
2023-03-29T05:40:05.940Z,2.45
2023-03-29T05:41:13.177Z,2.47
2023-03-29T05:42:35.964Z,2.46
2023-03-29T05:43:42.034Z,2.47
2023-03-29T05:44:44.291Z,2.47
2023-03-29T05:45:53.646Z,2.47
2023-03-29T05:46:59.875Z,2.47
2023-03-29T05:48:01.938Z,2.48
2023-03-29T05:49:04.509Z,2.48
2023-03-29T05:50:30.222Z,2.48
2023-03-29T05:51:33.383Z,2.49
2023-03-29T05:52:35.055Z,2.50
2023-03-29T05:53:37.807Z,2.50
2023-03-29T05:54:42.605Z,2.49
2023-03-29T05:55:46.725Z,2.51
2023-03-29T05:56:51.230Z,2.52
2023-03-29T05:57:52.742Z,2.53
2023-03-29T05:59:02.226Z,2.54
2023-03-29T06:00:15.746Z,2.56
2023-03-29T06:01:19.990Z,2.57
2023-03-29T06:02:36.665Z,2.60
2023-03-29T06:03:39.170Z,2.61
2023-03-29T06:04:40.865Z,2.63
2023-03-29T06:06:05.496Z,2.64
2023-03-29T06:07:10.283Z,2.67
2023-03-29T06:08:12.658Z,2.68
2023-03-29T06:09:30.577Z,2.69
2023-03-29T06:10:37.497Z,2.72
2023-03-29T06:12:02.487Z,2.74
2023-03-29T06:13:13.861Z,2.76
2023-03-29T06:14:15.643Z,2.78
2023-03-29T06:15:24.364Z,2.80
2023-03-29T06:16:30.729Z,2.81
2023-03-29T06:17:36.089Z,2.83
2023-03-29T06:18:40.300Z,2.86
2023-03-29T06:19:42.850Z,2.88
2023-03-29T06:20:51.954Z,2.89
2023-03-29T06:21:54.509Z,2.93
2023-03-29T06:23:00.036Z,2.94
2023-03-29T06:24:03.663Z,2.96
2023-03-29T06:25:12.512Z,2.98
2023-03-29T06:26:16.400Z,3.00
2023-03-29T06:27:19.184Z,3.02
2023-03-29T06:28:21.538Z,3.03
2023-03-29T06:29:30.959Z,3.05
2023-03-29T06:30:32.965Z,3.06
2023-03-29T06:31:36.347Z,3.07
2023-03-29T06:32:39.674Z,3.10
2023-03-29T06:33:50.263Z,3.10
2023-03-29T06:35:11.714Z,3.12
2023-03-29T06:36:16.294Z,3.15
2023-03-29T06:37:21.428Z,3.16
2023-03-29T06:38:30.888Z,3.18
2023-03-29T06:40:06.962Z,3.20
2023-03-29T06:41:26.718Z,3.23
2023-03-29T06:42:41.891Z,3.24
2023-03-29T06:44:03.975Z,3.28
2023-03-29T06:45:10.530Z,3.31
2023-03-29T06:46:14.311Z,3.33
2023-03-29T06:47:32.608Z,3.35
2023-03-29T06:48:34.475Z,3.37
2023-03-29T06:49:36.144Z,3.40
2023-03-29T06:50:56.896Z,3.42
2023-03-29T06:52:01.354Z,3.45
2023-03-29T06:53:04.848Z,3.47
2023-03-29T06:54:09.500Z,3.49
2023-03-29T06:55:16.466Z,3.52
2023-03-29T06:56:17.969Z,3.54
2023-03-29T06:57:24.434Z,3.56
2023-03-29T06:58:33.574Z,3.56
2023-03-29T06:59:49.488Z,3.58
2023-03-29T07:01:00.384Z,3.61
2023-03-29T07:02:12.541Z,3.65
2023-03-29T07:03:30.321Z,3.66
2023-03-29T07:04:32.639Z,3.68
2023-03-29T07:05:44.932Z,3.72
2023-03-29T07:07:02.492Z,3.75
2023-03-29T07:08:15.324Z,3.77
2023-03-29T07:09:33.811Z,3.80
2023-03-29T07:10:52.878Z,3.81
2023-03-29T07:12:14.058Z,3.83
2023-03-29T07:13:16.237Z,3.84
2023-03-29T07:14:18.496Z,3.86
2023-03-29T07:15:21.478Z,3.87
2023-03-29T07:16:47.234Z,3.90
2023-03-29T07:17:53.989Z,3.93
2023-03-29T07:18:55.720Z,3.95
2023-03-29T07:20:19.720Z,3.98
2023-03-29T07:21:24.676Z,3.99
2023-03-29T07:22:26.123Z,4.01
2023-03-29T07:23:33.730Z,4.02
2023-03-29T07:24:35.259Z,4.03
2023-03-29T07:25:37.439Z,4.05
2023-03-29T07:26:49.208Z,4.07
2023-03-29T07:27:59.901Z,4.09
2023-03-29T07:29:01.531Z,4.11
2023-03-29T07:30:09.752Z,4.14
2023-03-29T07:31:17.467Z,4.14
2023-03-29T07:32:26.065Z,4.14
2023-03-29T07:33:40.078Z,4.15
2023-03-29T07:34:42.778Z,4.18
2023-03-29T07:35:52.550Z,4.20
2023-03-29T07:36:56.393Z,4.22
2023-03-29T07:37:58.456Z,4.25
2023-03-29T07:39:03.726Z,4.26
2023-03-29T07:40:15.996Z,4.29
2023-03-29T07:41:39.827Z,4.33
2023-03-29T07:42:51.265Z,4.33
2023-03-29T07:43:55.798Z,4.35
2023-03-29T07:44:59.997Z,4.37
2023-03-29T07:46:11.543Z,4.38
2023-03-29T07:47:16.605Z,4.39
2023-03-29T07:48:19.625Z,4.40
2023-03-29T07:49:44.847Z,4.42
2023-03-29T07:50:46.465Z,4.44
2023-03-29T07:51:54.921Z,4.45
2023-03-29T07:52:56.915Z,4.47
2023-03-29T07:53:59.766Z,4.50
2023-03-29T07:55:17.083Z,4.53
2023-03-29T07:56:32.312Z,4.55
2023-03-29T07:58:04.441Z,4.59
2023-03-29T07:59:08.828Z,4.61
2023-03-29T08:00:15.897Z,4.62
2023-03-29T08:01:28.816Z,4.66
2023-03-29T08:02:52.381Z,4.69
2023-03-29T08:03:55.089Z,4.72
2023-03-29T08:05:09.874Z,4.76
2023-03-29T08:06:30.794Z,4.80
2023-03-29T08:07:32.973Z,4.84
2023-03-29T08:08:46.883Z,4.87
2023-03-29T08:09:51.347Z,4.90
2023-03-29T08:10:54.738Z,4.93
2023-03-29T08:12:31.368Z,4.94
2023-03-29T08:13:33.937Z,4.96
2023-03-29T08:15:11.180Z,4.99
2023-03-29T08:16:12.767Z,5.00
2023-03-29T08:17:22.126Z,5.02
2023-03-29T08:18:32.813Z,5.04
2023-03-29T08:19:37.158Z,5.06
2023-03-29T08:20:40.991Z,5.08
2023-03-29T08:21:42.762Z,5.10
2023-03-29T08:22:46.182Z,5.12
2023-03-29T08:24:14.661Z,5.14
2023-03-29T08:25:21.719Z,5.16
2023-03-29T08:26:26.898Z,5.19
2023-03-29T08:27:30.962Z,5.22
2023-03-29T08:28:35.906Z,5.26
2023-03-29T08:29:38.038Z,5.27
2023-03-29T08:30:39.770Z,5.30
2023-03-29T08:31:41.471Z,5.34
2023-03-29T08:32:43.565Z,5.35
2023-03-29T08:33:49.193Z,5.38
2023-03-29T08:35:12.855Z,5.42
2023-03-29T08:36:26.420Z,5.44
2023-03-29T08:37:31.331Z,5.46
2023-03-29T08:38:33.024Z,5.46
2023-03-29T08:39:35.073Z,5.50
2023-03-29T08:40:50.756Z,5.52
2023-03-29T08:41:59.665Z,5.51
2023-03-29T08:43:23.988Z,5.52
2023-03-29T08:45:02.591Z,5.55
2023-03-29T08:46:21.209Z,5.57
2023-03-29T08:47:35.689Z,5.58
2023-03-29T08:48:46.156Z,5.59
2023-03-29T08:50:00.670Z,5.62
2023-03-29T08:51:19.988Z,5.63
2023-03-29T08:52:31.255Z,5.64
2023-03-29T08:53:37.318Z,5.64
2023-03-29T08:54:49.726Z,5.65
2023-03-29T08:56:09.632Z,5.67
2023-03-29T08:57:32.559Z,5.70
2023-03-29T08:58:48.451Z,5.71
2023-03-29T08:59:53.433Z,5.73
2023-03-29T09:00:59.516Z,5.74
2023-03-29T09:02:05.632Z,5.76
2023-03-29T09:03:11.340Z,5.78
2023-03-29T09:04:16.307Z,5.81
2023-03-29T09:05:37.968Z,5.81
2023-03-29T09:06:52.121Z,5.84
2023-03-29T09:07:58.000Z,5.86
2023-03-29T09:09:02.902Z,5.89
2023-03-29T09:10:05.720Z,5.91
2023-03-29T09:11:24.945Z,5.95
2023-03-29T09:12:27.550Z,6.00
2023-03-29T09:13:31.869Z,6.01
2023-03-29T09:14:37.200Z,6.05
2023-03-29T09:16:07.590Z,6.09
2023-03-29T09:17:16.640Z,6.13
2023-03-29T09:18:18.477Z,6.17
2023-03-29T09:19:21.057Z,6.21
2023-03-29T09:21:01.524Z,6.25
2023-03-29T09:22:17.822Z,6.28
2023-03-29T09:23:25.701Z,6.32
2023-03-29T09:24:54.139Z,6.36
2023-03-29T09:26:13.850Z,6.42
2023-03-29T09:27:55.116Z,6.46
2023-03-29T09:29:35.244Z,6.52
2023-03-29T09:30:41.510Z,6.57
2023-03-29T09:31:49.498Z,6.61
2023-03-29T09:32:56.873Z,6.67
2023-03-29T09:34:13.108Z,6.73
2023-03-29T09:35:36.001Z,6.79
2023-03-29T09:36:46.937Z,6.83
2023-03-29T09:37:51.265Z,6.87
2023-03-29T09:38:54.572Z,6.90
2023-03-29T09:39:59.833Z,6.94
2023-03-29T09:41:25.184Z,6.99
2023-03-29T09:42:28.781Z,7.03
2023-03-29T09:50:34.068Z,7.29
2023-03-29T09:51:43.026Z,7.33
2023-03-29T09:52:49.320Z,7.37
2023-03-29T09:53:58.154Z,7.43
2023-03-29T09:55:33.841Z,7.47
2023-03-29T09:56:59.543Z,7.51
2023-03-29T09:58:01.876Z,7.55
2023-03-29T09:59:11.310Z,7.58
2023-03-29T10:00:13.900Z,7.61
2023-03-29T10:01:17.350Z,7.63
2023-03-29T10:02:20.358Z,7.65
2023-03-29T10:03:28.576Z,7.69
2023-03-29T10:04:52.826Z,7.69
2023-03-29T10:05:56.422Z,7.74
2023-03-29T10:06:58.800Z,7.76
2023-03-29T10:08:01.308Z,7.79
2023-03-29T10:09:06.577Z,7.81
2023-03-29T10:10:24.736Z,7.84
2023-03-29T10:11:30.721Z,7.89
2023-03-29T10:12:34.406Z,7.91
2023-03-29T10:13:36.878Z,7.93
2023-03-29T10:14:39.819Z,7.95
2023-03-29T10:15:44.253Z,7.96
2023-03-29T10:16:46.413Z,7.95
2023-03-29T10:17:48.300Z,7.96
2023-03-29T10:18:50.284Z,7.95
2023-03-29T10:20:08.158Z,7.95
2023-03-29T10:21:18.042Z,7.94
2023-03-29T10:22:22.902Z,7.95
2023-03-29T10:23:24.580Z,7.96
2023-03-29T10:24:26.669Z,7.95
2023-03-29T10:25:32.894Z,7.98
2023-03-29T10:26:38.812Z,7.99
2023-03-29T10:27:43.451Z,8.00
2023-03-29T10:28:45.028Z,8.01
2023-03-29T10:29:47.331Z,8.04
2023-03-29T10:30:53.895Z,8.06
2023-03-29T10:31:56.501Z,8.06
2023-03-29T10:32:59.796Z,8.08
2023-03-29T10:34:04.644Z,8.09
2023-03-29T10:35:17.782Z,8.11
2023-03-29T10:36:19.591Z,8.14
2023-03-29T10:37:22.986Z,8.16
2023-03-29T10:38:27.967Z,8.19
2023-03-29T10:39:35.671Z,8.21
2023-03-29T10:40:42.584Z,8.23
2023-03-29T10:41:49.829Z,8.26
2023-03-29T10:42:52.165Z,8.28
2023-03-29T10:43:54.208Z,8.30
2023-03-29T10:44:57.518Z,8.31
2023-03-29T10:46:06.779Z,8.31
2023-03-29T10:47:20.332Z,8.32
2023-03-29T10:48:29.325Z,8.33
2023-03-29T10:49:33.438Z,8.35
2023-03-29T10:50:38.263Z,8.37
2023-03-29T10:51:46.872Z,8.38
2023-03-29T10:52:50.398Z,8.37
2023-03-29T10:53:51.859Z,8.38
2023-03-29T10:54:55.296Z,8.38
2023-03-29T10:56:15.519Z,8.38
2023-03-29T10:57:26.407Z,8.42
2023-03-29T10:58:28.044Z,8.46
2023-03-29T10:59:36.076Z,8.48
2023-03-29T11:00:44.000Z,8.53
2023-03-29T11:01:48.728Z,8.55
2023-03-29T11:03:09.744Z,8.58
2023-03-29T11:04:24.524Z,8.60
2023-03-29T11:05:44.727Z,8.64
2023-03-29T11:06:55.569Z,8.67
2023-03-29T11:08:24.838Z,8.69
2023-03-29T11:09:41.431Z,8.69
2023-03-29T11:11:02.559Z,8.68
2023-03-29T11:12:15.039Z,8.68
2023-03-29T11:13:28.399Z,8.67
2023-03-29T11:14:39.104Z,8.68
2023-03-29T11:15:54.762Z,8.71
2023-03-29T11:17:15.191Z,8.72
2023-03-29T11:18:19.576Z,8.74
2023-03-29T11:19:32.448Z,8.75
2023-03-29T11:20:53.321Z,8.78
2023-03-29T11:21:57.553Z,8.80
2023-03-29T11:23:14.490Z,8.81
2023-03-29T11:24:46.982Z,8.84
2023-03-29T11:25:54.621Z,8.87
2023-03-29T11:26:56.751Z,8.89
2023-03-29T11:28:19.004Z,8.92
2023-03-29T11:29:23.937Z,8.95
2023-03-29T11:30:29.048Z,8.95
2023-03-29T11:31:50.221Z,8.98
2023-03-29T11:32:54.024Z,8.97
2023-03-29T11:33:55.734Z,8.98
2023-03-29T11:35:01.593Z,8.97
2023-03-29T11:36:13.856Z,8.99
2023-03-29T11:37:28.671Z,8.98
2023-03-29T11:38:34.525Z,8.99
2023-03-29T11:40:00.649Z,8.99
2023-03-29T11:41:30.209Z,8.99
2023-03-29T11:42:35.136Z,8.98
2023-03-29T11:43:45.023Z,8.99
2023-03-29T11:44:50.736Z,9.00
2023-03-29T11:46:00.268Z,9.02
2023-03-29T11:47:15.045Z,9.03
2023-03-29T11:48:23.028Z,9.05
2023-03-29T11:49:28.847Z,9.07
2023-03-29T11:50:45.564Z,9.09
2023-03-29T11:51:51.111Z,9.10
2023-03-29T11:52:54.885Z,9.13
2023-03-29T11:53:57.237Z,9.14
2023-03-29T11:55:05.668Z,9.17
2023-03-29T11:56:26.374Z,9.18
2023-03-29T11:57:40.747Z,9.16
2023-03-29T11:58:50.665Z,9.17
2023-03-29T12:00:05.456Z,9.17
2023-03-29T12:01:30.866Z,9.18
2023-03-29T12:02:37.235Z,9.17
2023-03-29T12:03:54.518Z,9.18
2023-03-29T12:05:00.209Z,9.17
2023-03-29T12:06:10.210Z,9.18
2023-03-29T12:07:25.304Z,9.18
2023-03-29T12:08:32.480Z,9.18
2023-03-29T12:10:02.819Z,9.18
2023-03-29T12:11:17.370Z,9.19
2023-03-29T12:12:20.451Z,9.20
2023-03-29T12:13:37.070Z,9.19
2023-03-29T12:15:06.144Z,9.18
2023-03-29T12:16:28.761Z,9.15
2023-03-29T12:17:38.858Z,9.16
2023-03-29T12:18:46.885Z,9.17
2023-03-29T12:20:05.861Z,9.20
2023-03-29T12:21:19.295Z,9.20
2023-03-29T12:22:22.132Z,9.20
2023-03-29T12:23:23.812Z,9.19
2023-03-29T12:24:26.816Z,9.21
2023-03-29T12:25:34.890Z,9.20
2023-03-29T12:26:42.656Z,9.26
2023-03-29T12:27:49.074Z,9.28
2023-03-29T12:29:09.608Z,9.29
2023-03-29T12:30:27.591Z,9.31
2023-03-29T12:31:48.992Z,9.33
2023-03-29T12:32:57.527Z,9.33
2023-03-29T12:34:52.876Z,9.29
2023-03-29T12:36:24.708Z,9.29
2023-03-29T12:38:09.807Z,9.29
2023-03-29T12:39:30.619Z,9.29
2023-03-29T12:41:03.093Z,9.30
2023-03-29T12:42:24.638Z,9.31
2023-03-29T12:43:45.986Z,9.30
2023-03-29T12:45:22.228Z,9.32
2023-03-29T12:46:29.511Z,9.32
2023-03-29T12:47:44.604Z,9.34
2023-03-29T12:48:51.749Z,9.36
2023-03-29T12:50:00.596Z,9.35
2023-03-29T12:51:29.201Z,9.35
2023-03-29T12:52:36.855Z,9.37
2023-03-29T12:53:46.539Z,9.38
2023-03-29T12:54:59.635Z,9.42
2023-03-29T12:56:19.940Z,9.43
2023-03-29T12:57:40.171Z,9.44
2023-03-29T12:58:52.944Z,9.47
2023-03-29T13:00:09.562Z,9.50
2023-03-29T13:01:26.554Z,9.50
2023-03-29T13:02:34.988Z,9.51
2023-03-29T13:03:42.887Z,9.51
2023-03-29T13:04:58.218Z,9.51
2023-03-29T13:06:06.974Z,9.48
2023-03-29T13:07:26.263Z,9.46
2023-03-29T13:08:33.509Z,9.48
2023-03-29T13:09:47.251Z,9.47
2023-03-29T13:10:53.198Z,9.51
2023-03-29T13:11:57.100Z,9.50
2023-03-29T13:13:08.574Z,9.52
2023-03-29T13:14:16.496Z,9.55
2023-03-29T13:15:18.046Z,9.56
2023-03-29T13:16:21.777Z,9.58
2023-03-29T13:17:35.088Z,9.63
2023-03-29T13:18:45.966Z,9.65
2023-03-29T13:19:55.158Z,9.66
2023-03-29T13:21:06.580Z,9.67
2023-03-29T13:22:36.321Z,9.68
2023-03-29T13:24:08.636Z,9.67
2023-03-29T13:25:29.249Z,9.68
2023-03-29T13:26:39.872Z,9.70
2023-03-29T13:27:51.616Z,9.72
2023-03-29T13:29:18.646Z,9.74
2023-03-29T13:30:34.847Z,9.75
2023-03-29T13:31:44.933Z,9.75
2023-03-29T13:32:55.857Z,9.75
2023-03-29T13:34:18.595Z,9.75
2023-03-29T13:35:30.720Z,9.77
2023-03-29T13:36:51.116Z,9.78
2023-03-29T13:38:03.678Z,9.78
2023-03-29T13:39:14.341Z,9.82
2023-03-29T13:40:32.365Z,9.84
2023-03-29T13:41:39.737Z,9.86
2023-03-29T13:42:46.079Z,9.87
2023-03-29T13:43:52.569Z,9.89
2023-03-29T13:45:05.802Z,9.94
2023-03-29T13:46:22.322Z,9.97
2023-03-29T13:47:27.324Z,10.01
2023-03-29T13:48:30.714Z,10.04
2023-03-29T13:49:35.632Z,10.07
2023-03-29T13:50:39.810Z,10.09
2023-03-29T13:51:45.482Z,10.12
2023-03-29T13:53:09.728Z,10.14
2023-03-29T13:54:31.839Z,10.16
2023-03-29T13:55:41.925Z,10.19
2023-03-29T13:57:04.060Z,10.21
2023-03-29T13:58:09.759Z,10.22
2023-03-29T13:59:24.029Z,10.23
2023-03-29T14:00:31.121Z,10.23
2023-03-29T14:01:54.430Z,10.21
2023-03-29T14:02:59.268Z,10.20
2023-03-29T14:04:05.447Z,10.18
2023-03-29T14:05:11.476Z,10.19
2023-03-29T14:06:16.897Z,10.19
2023-03-29T14:07:26.529Z,10.20
2023-03-29T14:08:35.998Z,10.20
2023-03-29T14:09:44.178Z,10.21
2023-03-29T14:10:59.899Z,10.23
2023-03-29T14:12:04.759Z,10.24
2023-03-29T14:13:09.910Z,10.29
2023-03-29T14:14:12.941Z,10.30
2023-03-29T14:15:21.068Z,10.32
2023-03-29T14:16:26.055Z,10.34
2023-03-29T14:17:34.133Z,10.37
2023-03-29T14:18:40.693Z,10.39
2023-03-29T14:19:50.014Z,10.39
2023-03-29T14:20:54.984Z,10.40
2023-03-29T14:21:57.379Z,10.41
2023-03-29T14:22:59.203Z,10.43
2023-03-29T14:24:02.551Z,10.43
2023-03-29T14:25:13.628Z,10.43
2023-03-29T14:26:20.033Z,10.43
2023-03-29T14:27:23.146Z,10.43
2023-03-29T14:28:34.475Z,10.44
2023-03-29T14:29:39.879Z,10.47
2023-03-29T14:30:50.148Z,10.50
2023-03-29T14:31:53.099Z,10.55
2023-03-29T14:32:55.835Z,10.58
2023-03-29T14:33:59.631Z,10.60
2023-03-29T14:35:05.517Z,10.62
2023-03-29T14:36:15.113Z,10.60
2023-03-29T14:37:29.780Z,10.60
2023-03-29T14:38:36.475Z,10.62
2023-03-29T14:39:41.017Z,10.60
2023-03-29T14:40:44.453Z,10.60
2023-03-29T14:41:50.340Z,10.60
2023-03-29T14:42:51.935Z,10.61
2023-03-29T14:43:55.237Z,10.62
2023-03-29T14:45:09.869Z,10.62
2023-03-29T14:46:14.742Z,10.63
2023-03-29T14:47:51.364Z,10.64
2023-03-29T14:49:00.509Z,10.64
2023-03-29T14:50:19.648Z,10.66
2023-03-29T14:51:27.310Z,10.67
2023-03-29T14:52:31.488Z,10.68
2023-03-29T14:53:34.530Z,10.67
2023-03-29T14:54:36.814Z,10.68
2023-03-29T14:55:40.582Z,10.68
2023-03-29T14:56:42.345Z,10.69
2023-03-29T14:57:45.635Z,10.69
2023-03-29T14:58:56.957Z,10.70
2023-03-29T15:00:00.348Z,10.69
2023-03-29T15:01:05.524Z,10.69
2023-03-29T15:02:22.736Z,10.70
2023-03-29T15:03:27.191Z,10.71
2023-03-29T15:04:35.760Z,10.70
2023-03-29T15:05:39.075Z,10.69
2023-03-29T15:06:41.909Z,10.68
2023-03-29T15:07:47.845Z,10.67
2023-03-29T15:09:03.715Z,10.66
2023-03-29T15:10:06.623Z,10.67
2023-03-29T15:11:15.439Z,10.65
2023-03-29T15:12:17.143Z,10.66
2023-03-29T15:13:21.649Z,10.65
2023-03-29T15:14:30.036Z,10.66
2023-03-29T15:15:36.331Z,10.66
2023-03-29T15:16:42.272Z,10.65
2023-03-29T15:17:51.769Z,10.63
2023-03-29T15:18:54.927Z,10.63
2023-03-29T15:20:06.407Z,10.61
2023-03-29T15:21:09.939Z,10.62
2023-03-29T15:22:11.763Z,10.59
2023-03-29T15:23:17.603Z,10.58
2023-03-29T15:24:30.367Z,10.56
2023-03-29T15:25:36.533Z,10.54